sensor_id;sensor_type;location;lat;lon;timestamp;P1;durP1;ratioP1;P2;durP2;ratioP2
34711;SDS011;20941;42.408;25.634;2022-11-04T00:01:48;14.55;;;9.00;;
34711;SDS011;20941;42.408;25.634;2022-11-04T00:04:15;17.60;;;8.88;;
34711;SDS011;20941;42.408;25.634;2022-11-04T00:06:42;15.55;;;9.00;;
34711;SDS011;20941;42.408;25.634;2022-11-04T00:09:08;16.33;;;9.90;;
34711;SDS011;20941;42.408;25.634;2022-11-04T00:11:36;25.63;;;14.65;;
34711;SDS011;20941;42.408;25.634;2022-11-04T00:14:20;27.00;;;14.50;;
34711;SDS011;20941;42.408;25.634;2022-11-04T00:16:46;18.73;;;11.18;;
34711;SDS011;20941;42.408;25.634;2022-11-04T00:19:30;100.15;;;63.72;;
34711;SDS011;20941;42.408;25.634;2022-11-04T00:25:00;28.10;;;14.35;;
34711;SDS011;20941;42.408;25.634;2022-11-04T00:27:46;20.20;;;11.40;;
34711;SDS011;20941;42.408;25.634;2022-11-04T00:30:30;22.95;;;12.38;;
34711;SDS011;20941;42.408;25.634;2022-11-04T00:32:55;22.55;;;11.85;;
34711;SDS011;20941;42.408;25.634;2022-11-04T00:35:39;20.08;;;11.57;;
34711;SDS011;20941;42.408;25.634;2022-11-04T00:38:05;21.67;;;11.32;;
34711;SDS011;20941;42.408;25.634;2022-11-04T00:40:30;17.77;;;11.50;;
34711;SDS011;20941;42.408;25.634;2022-11-04T00:42:56;17.73;;;9.95;;
34711;SDS011;20941;42.408;25.634;2022-11-04T00:45:21;20.50;;;11.50;;
34711;SDS011;20941;42.408;25.634;2022-11-04T00:47:47;20.65;;;13.45;;
34711;SDS011;20941;42.408;25.634;2022-11-04T00:50:12;43.70;;;25.75;;
34711;SDS011;20941;42.408;25.634;2022-11-04T00:52:38;48.90;;;29.20;;
34711;SDS011;20941;42.408;25.634;2022-11-04T00:55:04;39.15;;;25.85;;
34711;SDS011;20941;42.408;25.634;2022-11-04T00:57:29;37.05;;;21.48;;
34711;SDS011;20941;42.408;25.634;2022-11-04T00:59:56;31.17;;;16.27;;
34711;SDS011;20941;42.408;25.634;2022-11-04T01:02:21;29.38;;;19.45;;
34711;SDS011;20941;42.408;25.634;2022-11-04T01:04:47;25.10;;;14.85;;
34711;SDS011;20941;42.408;25.634;2022-11-04T01:07:13;24.45;;;14.05;;
34711;SDS011;20941;42.408;25.634;2022-11-04T01:09:39;26.67;;;14.43;;
34711;SDS011;20941;42.408;25.634;2022-11-04T01:12:04;26.40;;;14.02;;
34711;SDS011;20941;42.408;25.634;2022-11-04T01:14:30;24.52;;;14.65;;
34711;SDS011;20941;42.408;25.634;2022-11-04T01:16:55;23.83;;;12.63;;
34711;SDS011;20941;42.408;25.634;2022-11-04T01:19:21;19.95;;;11.93;;
34711;SDS011;20941;42.408;25.634;2022-11-04T01:21:50;18.70;;;10.15;;
34711;SDS011;20941;42.408;25.634;2022-11-04T01:24:16;17.95;;;11.43;;
34711;SDS011;20941;42.408;25.634;2022-11-04T01:26:42;19.27;;;11.10;;
34711;SDS011;20941;42.408;25.634;2022-11-04T01:29:07;19.10;;;11.02;;
34711;SDS011;20941;42.408;25.634;2022-11-04T01:31:33;18.13;;;10.68;;
34711;SDS011;20941;42.408;25.634;2022-11-04T01:33:58;18.63;;;10.50;;
34711;SDS011;20941;42.408;25.634;2022-11-04T01:36:24;22.25;;;10.85;;
34711;SDS011;20941;42.408;25.634;2022-11-04T01:38:51;20.13;;;10.45;;
34711;SDS011;20941;42.408;25.634;2022-11-04T01:41:26;19.90;;;11.15;;
34711;SDS011;20941;42.408;25.634;2022-11-04T01:43:55;21.50;;;11.32;;
34711;SDS011;20941;42.408;25.634;2022-11-04T01:46:27;20.60;;;11.15;;
34711;SDS011;20941;42.408;25.634;2022-11-04T01:48:59;19.42;;;10.82;;
34711;SDS011;20941;42.408;25.634;2022-11-04T01:51:28;19.60;;;11.63;;
34711;SDS011;20941;42.408;25.634;2022-11-04T01:53:59;24.15;;;11.93;;
34711;SDS011;20941;42.408;25.634;2022-11-04T01:56:26;20.85;;;11.10;;
34711;SDS011;20941;42.408;25.634;2022-11-04T01:58:53;20.00;;;10.90;;
34711;SDS011;20941;42.408;25.634;2022-11-04T02:01:22;29.48;;;11.07;;
34711;SDS011;20941;42.408;25.634;2022-11-04T02:03:49;29.13;;;11.02;;
34711;SDS011;20941;42.408;25.634;2022-11-04T02:06:18;29.50;;;11.93;;
34711;SDS011;20941;42.408;25.634;2022-11-04T02:08:45;28.58;;;12.35;;
34711;SDS011;20941;42.408;25.634;2022-11-04T02:11:12;35.22;;;12.68;;
34711;SDS011;20941;42.408;25.634;2022-11-04T02:21:51;23.48;;;11.13;;
34711;SDS011;20941;42.408;25.634;2022-11-04T02:26:56;27.23;;;11.25;;
34711;SDS011;20941;42.408;25.634;2022-11-04T02:35:00;33.35;;;11.85;;
34711;SDS011;20941;42.408;25.634;2022-11-04T02:45:46;29.52;;;12.93;;
34711;SDS011;20941;42.408;25.634;2022-11-04T02:50:59;23.10;;;11.50;;
34711;SDS011;20941;42.408;25.634;2022-11-04T02:53:34;20.60;;;11.18;;
34711;SDS011;20941;42.408;25.634;2022-11-04T02:56:14;23.38;;;12.48;;
34711;SDS011;20941;42.408;25.634;2022-11-04T02:58:53;19.52;;;11.63;;
34711;SDS011;20941;42.408;25.634;2022-11-04T03:01:22;27.08;;;12.00;;
34711;SDS011;20941;42.408;25.634;2022-11-04T03:03:56;22.08;;;12.05;;
34711;SDS011;20941;42.408;25.634;2022-11-04T03:06:38;21.90;;;11.35;;
34711;SDS011;20941;42.408;25.634;2022-11-04T03:09:06;24.73;;;12.25;;
34711;SDS011;20941;42.408;25.634;2022-11-04T03:11:35;26.00;;;12.55;;
34711;SDS011;20941;42.408;25.634;2022-11-04T03:14:09;26.02;;;13.38;;
34711;SDS011;20941;42.408;25.634;2022-11-04T03:16:47;26.58;;;14.18;;
34711;SDS011;20941;42.408;25.634;2022-11-04T03:19:29;23.83;;;13.90;;
34711;SDS011;20941;42.408;25.634;2022-11-04T03:22:04;24.42;;;14.27;;
34711;SDS011;20941;42.408;25.634;2022-11-04T03:24:35;30.00;;;14.48;;
34711;SDS011;20941;42.408;25.634;2022-11-04T03:30:07;25.95;;;14.18;;
34711;SDS011;20941;42.408;25.634;2022-11-04T03:35:02;28.40;;;12.57;;
34711;SDS011;20941;42.408;25.634;2022-11-04T03:37:28;24.10;;;13.60;;
34711;SDS011;20941;42.408;25.634;2022-11-04T03:39:54;29.23;;;14.32;;
34711;SDS011;20941;42.408;25.634;2022-11-04T03:42:19;32.33;;;14.20;;
34711;SDS011;20941;42.408;25.634;2022-11-04T03:44:48;33.08;;;13.88;;
34711;SDS011;20941;42.408;25.634;2022-11-04T03:47:19;34.20;;;15.13;;
34711;SDS011;20941;42.408;25.634;2022-11-04T03:49:47;29.70;;;14.02;;
34711;SDS011;20941;42.408;25.634;2022-11-04T03:52:13;35.80;;;14.55;;
34711;SDS011;20941;42.408;25.634;2022-11-04T03:54:41;30.30;;;13.73;;
34711;SDS011;20941;42.408;25.634;2022-11-04T03:59:44;22.30;;;13.15;;
34711;SDS011;20941;42.408;25.634;2022-11-04T04:05:05;35.63;;;17.98;;
34711;SDS011;20941;42.408;25.634;2022-11-04T04:07:39;39.40;;;19.25;;
34711;SDS011;20941;42.408;25.634;2022-11-04T04:13:00;28.38;;;14.18;;
34711;SDS011;20941;42.408;25.634;2022-11-04T04:15:30;27.88;;;13.60;;
34711;SDS011;20941;42.408;25.634;2022-11-04T04:18:06;52.58;;;16.13;;
34711;SDS011;20941;42.408;25.634;2022-11-04T04:20:37;36.45;;;15.30;;
34711;SDS011;20941;42.408;25.634;2022-11-04T04:23:05;31.95;;;14.88;;
34711;SDS011;20941;42.408;25.634;2022-11-04T04:25:53;46.38;;;14.90;;
34711;SDS011;20941;42.408;25.634;2022-11-04T04:28:42;31.40;;;15.48;;
34711;SDS011;20941;42.408;25.634;2022-11-04T04:31:10;30.70;;;14.10;;
34711;SDS011;20941;42.408;25.634;2022-11-04T04:33:38;33.67;;;12.98;;
34711;SDS011;20941;42.408;25.634;2022-11-04T04:36:03;41.17;;;14.75;;
34711;SDS011;20941;42.408;25.634;2022-11-04T04:38:31;38.88;;;16.23;;
34711;SDS011;20941;42.408;25.634;2022-11-04T04:44:12;37.38;;;14.07;;
34711;SDS011;20941;42.408;25.634;2022-11-04T04:47:02;46.35;;;16.85;;
34711;SDS011;20941;42.408;25.634;2022-11-04T04:49:28;45.78;;;17.80;;
34711;SDS011;20941;42.408;25.634;2022-11-04T04:51:59;40.33;;;17.95;;
34711;SDS011;20941;42.408;25.634;2022-11-04T04:54:27;24.67;;;13.75;;
34711;SDS011;20941;42.408;25.634;2022-11-04T04:56:52;22.80;;;13.02;;
34711;SDS011;20941;42.408;25.634;2022-11-04T04:59:18;26.15;;;12.50;;
34711;SDS011;20941;42.408;25.634;2022-11-04T05:01:43;25.38;;;12.90;;
34711;SDS011;20941;42.408;25.634;2022-11-04T05:04:09;41.90;;;16.13;;
34711;SDS011;20941;42.408;25.634;2022-11-04T05:06:35;31.85;;;16.35;;
34711;SDS011;20941;42.408;25.634;2022-11-04T05:09:00;35.70;;;16.13;;
34711;SDS011;20941;42.408;25.634;2022-11-04T05:11:26;37.88;;;19.02;;
34711;SDS011;20941;42.408;25.634;2022-11-04T05:13:51;38.22;;;18.20;;
34711;SDS011;20941;42.408;25.634;2022-11-04T05:16:17;47.40;;;18.85;;
34711;SDS011;20941;42.408;25.634;2022-11-04T05:18:42;42.50;;;19.35;;
34711;SDS011;20941;42.408;25.634;2022-11-04T05:21:10;43.90;;;19.27;;
34711;SDS011;20941;42.408;25.634;2022-11-04T05:23:38;61.20;;;23.60;;
34711;SDS011;20941;42.408;25.634;2022-11-04T05:26:04;52.33;;;22.23;;
34711;SDS011;20941;42.408;25.634;2022-11-04T05:28:30;45.85;;;21.27;;
34711;SDS011;20941;42.408;25.634;2022-11-04T05:30:55;45.70;;;19.95;;
34711;SDS011;20941;42.408;25.634;2022-11-04T05:33:21;57.05;;;22.90;;
34711;SDS011;20941;42.408;25.634;2022-11-04T05:35:46;35.30;;;18.90;;
34711;SDS011;20941;42.408;25.634;2022-11-04T05:38:12;46.60;;;22.73;;
34711;SDS011;20941;42.408;25.634;2022-11-04T05:40:38;45.13;;;22.90;;
34711;SDS011;20941;42.408;25.634;2022-11-04T05:43:04;52.40;;;24.48;;
34711;SDS011;20941;42.408;25.634;2022-11-04T05:45:30;41.92;;;21.63;;
34711;SDS011;20941;42.408;25.634;2022-11-04T05:47:58;43.20;;;18.20;;
34711;SDS011;20941;42.408;25.634;2022-11-04T05:50:25;37.60;;;18.30;;
34711;SDS011;20941;42.408;25.634;2022-11-04T05:52:50;33.22;;;16.63;;
34711;SDS011;20941;42.408;25.634;2022-11-04T05:55:16;30.45;;;14.88;;
34711;SDS011;20941;42.408;25.634;2022-11-04T05:57:42;29.63;;;15.27;;
34711;SDS011;20941;42.408;25.634;2022-11-04T06:00:08;35.35;;;16.20;;
34711;SDS011;20941;42.408;25.634;2022-11-04T06:02:34;46.75;;;17.15;;
34711;SDS011;20941;42.408;25.634;2022-11-04T06:05:00;42.30;;;18.98;;
34711;SDS011;20941;42.408;25.634;2022-11-04T06:07:26;43.83;;;18.88;;
34711;SDS011;20941;42.408;25.634;2022-11-04T06:09:51;57.55;;;19.08;;
34711;SDS011;20941;42.408;25.634;2022-11-04T06:12:17;49.40;;;17.02;;
34711;SDS011;20941;42.408;25.634;2022-11-04T06:14:42;45.92;;;16.30;;
34711;SDS011;20941;42.408;25.634;2022-11-04T06:17:18;36.00;;;15.32;;
34711;SDS011;20941;42.408;25.634;2022-11-04T06:19:45;33.75;;;14.70;;
34711;SDS011;20941;42.408;25.634;2022-11-04T06:22:12;39.85;;;17.73;;
34711;SDS011;20941;42.408;25.634;2022-11-04T06:24:39;44.90;;;17.02;;
34711;SDS011;20941;42.408;25.634;2022-11-04T06:27:05;36.03;;;15.20;;
34711;SDS011;20941;42.408;25.634;2022-11-04T06:29:31;35.25;;;14.27;;
34711;SDS011;20941;42.408;25.634;2022-11-04T06:31:57;35.30;;;15.98;;
34711;SDS011;20941;42.408;25.634;2022-11-04T06:34:23;28.25;;;13.80;;
34711;SDS011;20941;42.408;25.634;2022-11-04T06:36:49;35.40;;;15.15;;
34711;SDS011;20941;42.408;25.634;2022-11-04T06:39:14;40.40;;;15.50;;
34711;SDS011;20941;42.408;25.634;2022-11-04T06:41:40;50.92;;;15.68;;
34711;SDS011;20941;42.408;25.634;2022-11-04T06:44:06;34.78;;;16.08;;
34711;SDS011;20941;42.408;25.634;2022-11-04T06:46:36;42.17;;;16.83;;
34711;SDS011;20941;42.408;25.634;2022-11-04T06:49:04;65.10;;;26.08;;
34711;SDS011;20941;42.408;25.634;2022-11-04T06:51:31;57.08;;;17.67;;
34711;SDS011;20941;42.408;25.634;2022-11-04T06:53:57;44.25;;;16.88;;
34711;SDS011;20941;42.408;25.634;2022-11-04T06:56:23;42.70;;;15.70;;
34711;SDS011;20941;42.408;25.634;2022-11-04T06:58:49;36.85;;;15.65;;
34711;SDS011;20941;42.408;25.634;2022-11-04T07:01:16;46.45;;;17.25;;
34711;SDS011;20941;42.408;25.634;2022-11-04T07:03:42;41.92;;;22.38;;
34711;SDS011;20941;42.408;25.634;2022-11-04T07:06:09;41.97;;;17.40;;
34711;SDS011;20941;42.408;25.634;2022-11-04T07:08:35;35.92;;;16.10;;
34711;SDS011;20941;42.408;25.634;2022-11-04T07:11:01;37.40;;;17.02;;
34711;SDS011;20941;42.408;25.634;2022-11-04T07:13:27;40.40;;;15.40;;
34711;SDS011;20941;42.408;25.634;2022-11-04T07:15:53;51.05;;;16.75;;
34711;SDS011;20941;42.408;25.634;2022-11-04T07:18:19;34.92;;;15.10;;
34711;SDS011;20941;42.408;25.634;2022-11-04T07:20:44;36.20;;;15.23;;
34711;SDS011;20941;42.408;25.634;2022-11-04T07:23:10;76.82;;;18.15;;
34711;SDS011;20941;42.408;25.634;2022-11-04T07:25:36;508.35;;;47.05;;
34711;SDS011;20941;42.408;25.634;2022-11-04T07:28:01;66.20;;;16.42;;
34711;SDS011;20941;42.408;25.634;2022-11-04T07:30:30;185.82;;;36.28;;
34711;SDS011;20941;42.408;25.634;2022-11-04T07:32:56;128.48;;;23.50;;
34711;SDS011;20941;42.408;25.634;2022-11-04T07:35:22;92.13;;;19.95;;
34711;SDS011;20941;42.408;25.634;2022-11-04T07:37:48;43.75;;;16.55;;
34711;SDS011;20941;42.408;25.634;2022-11-04T07:40:13;36.10;;;17.23;;
34711;SDS011;20941;42.408;25.634;2022-11-04T07:42:39;26.13;;;14.38;;
34711;SDS011;20941;42.408;25.634;2022-11-04T07:45:05;32.35;;;15.35;;
34711;SDS011;20941;42.408;25.634;2022-11-04T07:47:31;34.85;;;15.38;;
34711;SDS011;20941;42.408;25.634;2022-11-04T07:49:57;35.40;;;15.20;;
34711;SDS011;20941;42.408;25.634;2022-11-04T07:52:23;29.10;;;14.13;;
34711;SDS011;20941;42.408;25.634;2022-11-04T07:54:49;25.27;;;14.10;;
34711;SDS011;20941;42.408;25.634;2022-11-04T07:57:15;34.83;;;15.05;;
34711;SDS011;20941;42.408;25.634;2022-11-04T07:59:40;30.55;;;14.45;;
34711;SDS011;20941;42.408;25.634;2022-11-04T08:02:06;26.50;;;13.85;;
34711;SDS011;20941;42.408;25.634;2022-11-04T08:04:32;21.80;;;13.82;;
34711;SDS011;20941;42.408;25.634;2022-11-04T08:06:57;34.47;;;15.27;;
34711;SDS011;20941;42.408;25.634;2022-11-04T08:09:23;27.10;;;14.85;;
34711;SDS011;20941;42.408;25.634;2022-11-04T08:11:48;29.77;;;14.50;;
34711;SDS011;20941;42.408;25.634;2022-11-04T08:14:14;31.70;;;15.75;;
34711;SDS011;20941;42.408;25.634;2022-11-04T08:16:39;26.10;;;13.27;;
34711;SDS011;20941;42.408;25.634;2022-11-04T08:19:05;29.08;;;14.75;;
34711;SDS011;20941;42.408;25.634;2022-11-04T08:21:31;25.35;;;13.63;;
34711;SDS011;20941;42.408;25.634;2022-11-04T08:23:58;36.58;;;15.57;;
34711;SDS011;20941;42.408;25.634;2022-11-04T08:26:24;30.15;;;15.57;;
34711;SDS011;20941;42.408;25.634;2022-11-04T08:28:50;33.30;;;16.73;;
34711;SDS011;20941;42.408;25.634;2022-11-04T08:31:21;33.58;;;14.73;;
34711;SDS011;20941;42.408;25.634;2022-11-04T08:33:51;28.20;;;14.60;;
34711;SDS011;20941;42.408;25.634;2022-11-04T08:36:19;33.97;;;15.30;;
34711;SDS011;20941;42.408;25.634;2022-11-04T08:38:46;43.63;;;16.40;;
34711;SDS011;20941;42.408;25.634;2022-11-04T08:41:13;34.70;;;16.80;;
34711;SDS011;20941;42.408;25.634;2022-11-04T08:43:40;46.47;;;17.25;;
34711;SDS011;20941;42.408;25.634;2022-11-04T08:46:07;37.58;;;17.20;;
34711;SDS011;20941;42.408;25.634;2022-11-04T08:48:35;36.33;;;18.30;;
34711;SDS011;20941;42.408;25.634;2022-11-04T08:51:03;33.53;;;18.50;;
34711;SDS011;20941;42.408;25.634;2022-11-04T08:53:30;39.95;;;19.33;;
34711;SDS011;20941;42.408;25.634;2022-11-04T08:55:56;53.63;;;19.23;;
34711;SDS011;20941;42.408;25.634;2022-11-04T08:58:22;36.03;;;16.85;;
34711;SDS011;20941;42.408;25.634;2022-11-04T09:00:49;37.45;;;18.13;;
34711;SDS011;20941;42.408;25.634;2022-11-04T09:03:15;35.92;;;17.90;;
34711;SDS011;20941;42.408;25.634;2022-11-04T09:05:41;34.28;;;17.02;;
34711;SDS011;20941;42.408;25.634;2022-11-04T09:08:11;29.10;;;16.48;;
34711;SDS011;20941;42.408;25.634;2022-11-04T09:10:41;37.67;;;16.48;;
34711;SDS011;20941;42.408;25.634;2022-11-04T09:13:08;37.53;;;17.45;;
34711;SDS011;20941;42.408;25.634;2022-11-04T09:15:35;37.88;;;17.50;;
34711;SDS011;20941;42.408;25.634;2022-11-04T09:18:02;38.97;;;18.20;;
34711;SDS011;20941;42.408;25.634;2022-11-04T09:20:28;42.80;;;19.45;;
34711;SDS011;20941;42.408;25.634;2022-11-04T09:22:56;46.28;;;20.95;;
34711;SDS011;20941;42.408;25.634;2022-11-04T09:25:22;41.80;;;20.00;;
34711;SDS011;20941;42.408;25.634;2022-11-04T09:27:48;42.22;;;20.67;;
34711;SDS011;20941;42.408;25.634;2022-11-04T09:30:13;41.90;;;19.75;;
34711;SDS011;20941;42.408;25.634;2022-11-04T09:32:40;38.78;;;19.67;;
34711;SDS011;20941;42.408;25.634;2022-11-04T09:35:05;45.05;;;21.35;;
34711;SDS011;20941;42.408;25.634;2022-11-04T09:37:31;50.85;;;22.67;;
34711;SDS011;20941;42.408;25.634;2022-11-04T09:39:57;41.60;;;21.70;;
34711;SDS011;20941;42.408;25.634;2022-11-04T09:45:10;45.55;;;24.05;;
34711;SDS011;20941;42.408;25.634;2022-11-04T09:47:40;41.47;;;22.52;;
34711;SDS011;20941;42.408;25.634;2022-11-04T09:50:09;37.85;;;19.75;;
34711;SDS011;20941;42.408;25.634;2022-11-04T09:52:43;44.15;;;22.52;;
34711;SDS011;20941;42.408;25.634;2022-11-04T09:55:19;39.90;;;18.77;;
34711;SDS011;20941;42.408;25.634;2022-11-04T09:57:55;41.53;;;20.55;;
34711;SDS011;20941;42.408;25.634;2022-11-04T10:00:23;45.92;;;20.08;;
34711;SDS011;20941;42.408;25.634;2022-11-04T10:05:36;37.63;;;20.70;;
34711;SDS011;20941;42.408;25.634;2022-11-04T10:08:20;42.85;;;20.55;;
34711;SDS011;20941;42.408;25.634;2022-11-04T10:11:21;49.83;;;21.45;;
34711;SDS011;20941;42.408;25.634;2022-11-04T10:22:51;52.50;;;23.40;;
34711;SDS011;20941;42.408;25.634;2022-11-04T10:25:24;36.58;;;19.38;;
34711;SDS011;20941;42.408;25.634;2022-11-04T10:27:57;46.25;;;21.30;;
34711;SDS011;20941;42.408;25.634;2022-11-04T10:30:24;37.40;;;18.83;;
34711;SDS011;20941;42.408;25.634;2022-11-04T10:38:13;36.72;;;19.92;;
34711;SDS011;20941;42.408;25.634;2022-11-04T10:40:39;38.92;;;20.75;;
34711;SDS011;20941;42.408;25.634;2022-11-04T10:43:09;40.15;;;20.75;;
34711;SDS011;20941;42.408;25.634;2022-11-04T10:45:43;42.78;;;21.83;;
34711;SDS011;20941;42.408;25.634;2022-11-04T10:48:17;42.13;;;21.88;;
34711;SDS011;20941;42.408;25.634;2022-11-04T10:50:53;41.28;;;22.63;;
34711;SDS011;20941;42.408;25.634;2022-11-04T10:53:24;41.50;;;21.98;;
34711;SDS011;20941;42.408;25.634;2022-11-04T10:56:00;41.17;;;21.23;;
34711;SDS011;20941;42.408;25.634;2022-11-04T10:58:28;43.42;;;23.27;;
34711;SDS011;20941;42.408;25.634;2022-11-04T11:00:55;42.63;;;22.63;;
34711;SDS011;20941;42.408;25.634;2022-11-04T11:03:23;43.00;;;20.98;;
34711;SDS011;20941;42.408;25.634;2022-11-04T11:05:51;39.60;;;20.75;;
34711;SDS011;20941;42.408;25.634;2022-11-04T11:08:30;47.00;;;21.73;;
34711;SDS011;20941;42.408;25.634;2022-11-04T11:11:01;40.38;;;22.13;;
34711;SDS011;20941;42.408;25.634;2022-11-04T11:13:33;44.58;;;22.27;;
34711;SDS011;20941;42.408;25.634;2022-11-04T11:16:04;51.35;;;22.83;;
34711;SDS011;20941;42.408;25.634;2022-11-04T11:18:33;46.13;;;22.67;;
34711;SDS011;20941;42.408;25.634;2022-11-04T11:21:14;52.50;;;22.40;;
34711;SDS011;20941;42.408;25.634;2022-11-04T11:23:48;48.03;;;23.83;;
34711;SDS011;20941;42.408;25.634;2022-11-04T11:26:28;45.40;;;23.42;;
34711;SDS011;20941;42.408;25.634;2022-11-04T11:28:56;50.03;;;25.48;;
34711;SDS011;20941;42.408;25.634;2022-11-04T11:31:33;49.72;;;24.67;;
34711;SDS011;20941;42.408;25.634;2022-11-04T11:34:36;47.83;;;23.63;;
34711;SDS011;20941;42.408;25.634;2022-11-04T11:36:56;48.85;;;24.90;;
34711;SDS011;20941;42.408;25.634;2022-11-04T11:39:26;50.80;;;25.17;;
34711;SDS011;20941;42.408;25.634;2022-11-04T11:44:30;46.35;;;25.42;;
34711;SDS011;20941;42.408;25.634;2022-11-04T11:47:05;53.50;;;25.35;;
34711;SDS011;20941;42.408;25.634;2022-11-04T11:49:42;48.25;;;23.85;;
34711;SDS011;20941;42.408;25.634;2022-11-04T11:52:50;51.00;;;25.75;;
34711;SDS011;20941;42.408;25.634;2022-11-04T11:55:05;48.97;;;24.77;;
34711;SDS011;20941;42.408;25.634;2022-11-04T12:00:09;44.33;;;22.77;;
34711;SDS011;20941;42.408;25.634;2022-11-04T12:05:12;42.03;;;22.63;;
34711;SDS011;20941;42.408;25.634;2022-11-04T12:07:45;47.00;;;23.52;;
34711;SDS011;20941;42.408;25.634;2022-11-04T12:10:29;44.20;;;23.75;;
34711;SDS011;20941;42.408;25.634;2022-11-04T12:15:51;45.42;;;23.63;;
34711;SDS011;20941;42.408;25.634;2022-11-04T12:18:33;41.83;;;23.77;;
34711;SDS011;20941;42.408;25.634;2022-11-04T12:21:12;43.50;;;23.30;;
34711;SDS011;20941;42.408;25.634;2022-11-04T12:23:54;39.85;;;22.15;;
34711;SDS011;20941;42.408;25.634;2022-11-04T12:29:52;39.15;;;22.25;;
34711;SDS011;20941;42.408;25.634;2022-11-04T12:36:13;49.42;;;23.35;;
34711;SDS011;20941;42.408;25.634;2022-11-04T12:49:54;45.13;;;24.77;;
34711;SDS011;20941;42.408;25.634;2022-11-04T13:00:50;44.28;;;22.85;;
34711;SDS011;20941;42.408;25.634;2022-11-04T13:03:35;44.95;;;22.63;;
34711;SDS011;20941;42.408;25.634;2022-11-04T13:06:18;43.17;;;22.90;;
34711;SDS011;20941;42.408;25.634;2022-11-04T13:14:19;42.28;;;23.38;;
34711;SDS011;20941;42.408;25.634;2022-11-04T13:16:53;51.92;;;23.63;;
34711;SDS011;20941;42.408;25.634;2022-11-04T13:19:28;40.17;;;23.17;;
34711;SDS011;20941;42.408;25.634;2022-11-04T13:22:14;42.10;;;23.92;;
34711;SDS011;20941;42.408;25.634;2022-11-04T13:24:46;62.10;;;25.67;;
34711;SDS011;20941;42.408;25.634;2022-11-04T13:27:26;54.28;;;25.92;;
34711;SDS011;20941;42.408;25.634;2022-11-04T13:30:14;52.58;;;26.05;;
34711;SDS011;20941;42.408;25.634;2022-11-04T13:33:09;51.97;;;26.15;;
34711;SDS011;20941;42.408;25.634;2022-11-04T13:38:43;50.10;;;26.42;;
34711;SDS011;20941;42.408;25.634;2022-11-04T13:43:57;50.28;;;25.13;;
34711;SDS011;20941;42.408;25.634;2022-11-04T13:46:29;46.70;;;25.25;;
34711;SDS011;20941;42.408;25.634;2022-11-04T13:49:02;52.35;;;24.90;;
34711;SDS011;20941;42.408;25.634;2022-11-04T13:51:34;46.95;;;24.67;;
34711;SDS011;20941;42.408;25.634;2022-11-04T13:54:04;52.15;;;24.13;;
34711;SDS011;20941;42.408;25.634;2022-11-04T13:56:39;49.67;;;25.65;;
34711;SDS011;20941;42.408;25.634;2022-11-04T14:02:37;49.13;;;23.75;;
34711;SDS011;20941;42.408;25.634;2022-11-04T14:04:43;43.10;;;22.50;;
34711;SDS011;20941;42.408;25.634;2022-11-04T14:07:16;51.30;;;24.05;;
34711;SDS011;20941;42.408;25.634;2022-11-04T14:15:57;46.22;;;23.67;;
34711;SDS011;20941;42.408;25.634;2022-11-04T14:19:59;48.00;;;24.13;;
34711;SDS011;20941;42.408;25.634;2022-11-04T14:23:17;47.70;;;24.63;;
34711;SDS011;20941;42.408;25.634;2022-11-04T14:30:36;55.58;;;29.15;;
34711;SDS011;20941;42.408;25.634;2022-11-04T14:41:55;55.13;;;24.48;;
34711;SDS011;20941;42.408;25.634;2022-11-04T14:47:15;53.53;;;24.00;;
34711;SDS011;20941;42.408;25.634;2022-11-04T14:54:56;47.28;;;24.50;;
34711;SDS011;20941;42.408;25.634;2022-11-04T14:57:43;47.92;;;23.50;;
34711;SDS011;20941;42.408;25.634;2022-11-04T15:00:18;51.80;;;24.45;;
34711;SDS011;20941;42.408;25.634;2022-11-04T15:05:34;58.25;;;27.35;;
34711;SDS011;20941;42.408;25.634;2022-11-04T15:11:01;69.70;;;26.95;;
34711;SDS011;20941;42.408;25.634;2022-11-04T15:13:28;54.80;;;26.42;;
34711;SDS011;20941;42.408;25.634;2022-11-04T15:15:57;62.92;;;27.38;;
34711;SDS011;20941;42.408;25.634;2022-11-04T15:18:24;63.13;;;27.20;;
34711;SDS011;20941;42.408;25.634;2022-11-04T15:20:54;83.15;;;29.77;;
34711;SDS011;20941;42.408;25.634;2022-11-04T15:23:35;78.72;;;28.48;;
34711;SDS011;20941;42.408;25.634;2022-11-04T15:26:29;65.00;;;27.40;;
34711;SDS011;20941;42.408;25.634;2022-11-04T15:28:57;73.43;;;27.80;;
34711;SDS011;20941;42.408;25.634;2022-11-04T15:31:25;71.32;;;27.63;;
34711;SDS011;20941;42.408;25.634;2022-11-04T15:33:54;65.85;;;29.38;;
34711;SDS011;20941;42.408;25.634;2022-11-04T15:36:32;74.38;;;29.17;;
34711;SDS011;20941;42.408;25.634;2022-11-04T15:41:37;73.20;;;31.35;;
34711;SDS011;20941;42.408;25.634;2022-11-04T15:44:30;84.13;;;29.08;;
34711;SDS011;20941;42.408;25.634;2022-11-04T15:47:01;82.33;;;29.63;;
34711;SDS011;20941;42.408;25.634;2022-11-04T15:49:45;55.67;;;26.95;;
34711;SDS011;20941;42.408;25.634;2022-11-04T15:52:13;61.55;;;27.85;;
34711;SDS011;20941;42.408;25.634;2022-11-04T15:54:45;77.65;;;28.50;;
34711;SDS011;20941;42.408;25.634;2022-11-04T15:57:14;78.30;;;30.33;;
34711;SDS011;20941;42.408;25.634;2022-11-04T16:02:26;64.38;;;29.10;;
34711;SDS011;20941;42.408;25.634;2022-11-04T16:05:15;72.78;;;29.85;;
34711;SDS011;20941;42.408;25.634;2022-11-04T16:07:45;78.45;;;32.33;;
34711;SDS011;20941;42.408;25.634;2022-11-04T16:10:46;68.13;;;30.27;;
34711;SDS011;20941;42.408;25.634;2022-11-04T16:15:43;69.32;;;29.58;;
34711;SDS011;20941;42.408;25.634;2022-11-04T16:18:25;66.55;;;30.38;;
34711;SDS011;20941;42.408;25.634;2022-11-04T16:21:00;62.13;;;29.02;;
34711;SDS011;20941;42.408;25.634;2022-11-04T16:23:32;57.05;;;27.77;;
34711;SDS011;20941;42.408;25.634;2022-11-04T16:26:08;47.42;;;25.80;;
34711;SDS011;20941;42.408;25.634;2022-11-04T16:28:34;59.33;;;26.30;;
34711;SDS011;20941;42.408;25.634;2022-11-04T16:31:02;66.13;;;27.00;;
34711;SDS011;20941;42.408;25.634;2022-11-04T16:33:29;56.63;;;25.45;;
34711;SDS011;20941;42.408;25.634;2022-11-04T16:35:55;62.15;;;25.25;;
34711;SDS011;20941;42.408;25.634;2022-11-04T16:38:20;59.70;;;27.83;;
34711;SDS011;20941;42.408;25.634;2022-11-04T16:40:47;62.72;;;25.45;;
34711;SDS011;20941;42.408;25.634;2022-11-04T16:43:14;57.05;;;26.27;;
34711;SDS011;20941;42.408;25.634;2022-11-04T16:45:43;54.72;;;26.50;;
34711;SDS011;20941;42.408;25.634;2022-11-04T16:48:20;53.95;;;26.02;;
34711;SDS011;20941;42.408;25.634;2022-11-04T16:50:48;52.35;;;25.95;;
34711;SDS011;20941;42.408;25.634;2022-11-04T16:53:14;56.22;;;27.90;;
34711;SDS011;20941;42.408;25.634;2022-11-04T16:55:40;64.57;;;27.65;;
34711;SDS011;20941;42.408;25.634;2022-11-04T16:58:09;54.67;;;28.42;;
34711;SDS011;20941;42.408;25.634;2022-11-04T17:00:41;56.08;;;25.98;;
34711;SDS011;20941;42.408;25.634;2022-11-04T17:03:13;47.47;;;24.33;;
34711;SDS011;20941;42.408;25.634;2022-11-04T17:05:50;52.58;;;24.95;;
34711;SDS011;20941;42.408;25.634;2022-11-04T17:08:19;55.30;;;24.70;;